Aviston, Illinois
Current Conditions -  °F | °C
As of 5:58 PM on Friday 24 Oct 2014 (Local Time) from KBLV Reporting Station
Clear Clear  
Wind Chill: 66°   Ceiling: Unl
Heat Index: 66°   Visibility: 10mi
Dew Point: 51°   Wind: 2mph
Humidity: 59%   Direction: 190°S
Pressure: 30"   Gusts: NA
Location:  38.61°N, 89.61°W
Report Text: KBLV 242258Z AUTO 19002KT 10SM CLR 19/11 A3000 RMK AO2 SLP161 T01870106 $
Loading
Personal Weather Stations






























Interactive Weather Map
Tropical Storm Tracking
New forecast layout! Learn more

10-Day Weather Forecast

Advertisements
Track Severe Weather on mobile